KEBS

Webster City Municipal Airport

Webster City, Iowa, USA
METAR KEBS 191535Z AUTO 33013KT 10SM CLR M02/M05 A3003 RMK AO2
Observed Flight Rules
Nov-19 @ 15:35 UTC (37 minutes ago) Visual Flight Rules
Wind Visibility Clouds
330° at 13 knots 10 miles
  • Clear skies
Temperatures Readings
Current -2°C / 28°F
Dewpoint -5°C / 23°F
Humidity 80%
Altimeter 30.03" Hg
Pressure 1017 hPa
Elevation 342
METAR KEBS 191535Z AUTO 33013KT 10SM CLR M02/M05 A3003 RMK AO2
Observed Flight Rules
Nov-19 @ 15:35 UTC
(37 minutes ago)
VFR
Wind Visibility
330° at 13 knots 10 miles
Clouds
  • Clear skies
Temperature Dewpoint
-2°C / 28°F -5°C / 23°F
Humidity Altimeter Pressure
80% 30.03" Hg 1017 hPa